.
WxDataArchive / Data Records for 2007-12-21
2007-12-20 December 2007 2007-12-22

Data Records for Friday, 21 December 2007

Time	Temp	Chill	HIndex	Humid	Dewpt	 Wind 	HiWind	WindDir	Rain 	Barom 
-----	----	-----	------	-----	-----	------	------	-------	-----	----- 
00:00	28.1	28.1	28.1	83	23.6	3	7	90	0.00	30.010 
00:05	28.2	23.7	28.2	83	23.7	4	9	90	0.00	30.004 
00:10	28.2	28.2	28.2	83	23.7	3	7	90	0.00	30.004 
00:15	28.1	28.1	28.1	83	23.6	3	5	112	0.00	30.004 
00:20	28.1	28.1	28.1	83	23.6	3	7	90	0.00	30.005 
00:25	28.2	28.2	28.2	83	23.7	2	6	90	0.00	30.009 
00:30	28.1	28.1	28.1	83	23.6	2	4	90	0.00	30.014 
00:35	27.9	27.9	27.9	83	23.4	1	5	90	0.00	30.012 
00:40	27.9	27.9	27.9	83	23.4	2	6	112	0.00	30.015 
00:45	27.6	27.6	27.6	83	23.1	0	2	90	0.00	30.017 
00:50	27.5	27.5	27.5	83	23.0	1	4	90	0.00	30.015 
00:55	27.3	27.3	27.3	84	23.1	1	2	90	0.00	30.017 
01:00	27.2	27.2	27.2	84	23.0	0	1	90	0.00	30.019 
01:05	27.0	27.0	27.0	84	22.8	0	2	90	0.00	30.014 
01:10	26.9	26.9	26.9	84	22.7	0	2	90	0.00	30.015 
01:15	26.6	26.6	26.6	84	22.4	0	3	90	0.00	30.013 
01:20	26.4	26.4	26.4	84	22.2	1	2	90	0.00	30.014 
01:25	26.3	26.3	26.3	84	22.1	0	2	90	0.00	30.015 
01:30	26.1	26.1	26.1	85	22.2	1	3	90	0.00	30.011 
01:35	26.0	26.0	26.0	85	22.1	1	3	90	0.00	30.009 
01:40	26.0	26.0	26.0	85	22.1	2	3	90	0.00	30.009 
01:45	26.0	26.0	26.0	85	22.1	2	4	90	0.00	30.007 
01:50	26.3	26.3	26.3	85	22.4	2	4	112	0.00	30.007 
01:55	26.3	26.3	26.3	85	22.4	2	5	90	0.00	30.007 
02:00	26.3	26.3	26.3	85	22.4	2	3	90	0.00	30.009 
02:05	26.3	26.3	26.3	85	22.4	2	4	112	0.00	30.007 
02:10	26.3	26.3	26.3	85	22.4	2	4	90	0.00	30.005 
02:15	26.3	26.3	26.3	85	22.4	3	6	90	0.00	30.002 
02:20	26.1	26.1	26.1	85	22.2	3	6	90	0.00	29.999 
02:25	26.1	26.1	26.1	85	22.2	3	6	112	0.00	30.000 
02:30	26.3	26.3	26.3	85	22.4	2	6	90	0.00	30.003 
02:35	26.3	26.3	26.3	84	22.1	2	4	90	0.00	30.005 
02:40	26.4	26.4	26.4	84	22.2	2	4	90	0.00	30.007 
02:45	26.4	26.4	26.4	84	22.2	1	4	90	0.00	30.009 
02:50	26.4	26.4	26.4	84	22.2	1	4	90	0.00	30.011 
02:55	26.4	26.4	26.4	84	22.2	2	4	112	0.00	30.014 
03:00	26.6	26.6	26.6	84	22.4	2	6	90	0.00	30.011 
03:05	26.9	26.9	26.9	84	22.7	2	4	90	0.00	30.011 
03:10	26.9	26.9	26.9	83	22.4	2	5	90	0.00	30.011 
03:15	27.0	27.0	27.0	83	22.5	3	7	90	0.00	30.008 
03:20	27.0	27.0	27.0	83	22.5	3	7	90	0.00	30.008 
03:25	27.2	27.2	27.2	82	22.4	2	5	90	0.00	30.004 
03:30	26.9	26.9	26.9	82	22.2	1	3	90	0.00	30.006 
03:35	26.4	26.4	26.4	82	21.7	0	1	90	0.00	30.005 
03:40	26.1	26.1	26.1	82	21.4	1	3	90	0.00	30.008 
03:45	25.8	25.8	25.8	83	21.4	1	3	90	0.00	30.008 
03:50	25.7	25.7	25.7	84	21.5	1	4	90	0.00	30.009 
03:55	25.7	25.7	25.7	84	21.5	2	5	90	0.00	30.006 
04:00	25.7	25.7	25.7	84	21.5	2	5	90	0.00	30.003 
04:05	25.7	25.7	25.7	84	21.5	2	5	112	0.00	30.003 
04:10	25.7	25.7	25.7	84	21.5	2	4	112	0.00	30.002 
04:15	25.8	25.8	25.8	84	21.6	1	4	112	0.00	30.004 
04:20	25.7	25.7	25.7	84	21.5	1	4	112	0.00	30.004 
04:25	25.7	25.7	25.7	84	21.5	1	4	68	0.00	30.004 
04:30	25.7	25.7	25.7	84	21.5	1	4	90	0.00	30.003 
04:35	25.7	25.7	25.7	84	21.5	0	3	45	0.00	30.004 
04:40	25.6	25.6	25.6	84	21.5	0	2	45	0.00	30.005 
04:45	25.4	25.4	25.4	84	21.3	0	4	112	0.00	30.010 
04:50	25.3	25.3	25.3	84	21.2	0	2	45	0.00	30.007 
04:55	25.3	25.3	25.3	85	21.4	1	2	45	0.00	30.006 
05:00	25.3	25.3	25.3	85	21.4	1	3	22	0.00	30.005 
05:05	25.4	25.4	25.4	85	21.5	2	5	112	0.00	30.005 
05:10	25.4	25.4	25.4	85	21.5	2	4	90	0.00	30.006 
05:15	25.4	25.4	25.4	85	21.5	2	5	90	0.00	30.005 
05:20	25.4	25.4	25.4	84	21.3	1	4	90	0.00	30.004 
05:25	25.4	25.4	25.4	84	21.3	2	6	90	0.00	30.001 
05:30	25.3	25.3	25.3	84	21.2	2	5	90	0.00	29.995 
05:35	25.1	25.1	25.1	84	21.0	2	6	90	0.00	29.996 
05:40	25.0	25.0	25.0	85	21.1	3	7	90	0.00	29.994 
05:45	25.0	25.0	25.0	85	21.1	3	7	112	0.00	29.996 
05:50	24.8	24.8	24.8	85	20.9	3	6	112	0.00	29.995 
05:55	24.7	24.7	24.7	85	20.8	3	7	112	0.00	29.997 
06:00	24.7	24.7	24.7	85	20.8	3	5	112	0.00	29.999 
06:05	24.7	24.7	24.7	85	20.8	2	5	90	0.00	30.002 
06:10	24.7	24.7	24.7	88	21.7	2	6	112	0.00	30.003 
06:15	24.8	24.8	24.8	85	20.9	2	6	90	0.00	30.003 
06:20	25.1	25.1	25.1	85	21.2	3	6	90	0.00	30.003 
06:25	25.3	25.3	25.3	85	21.4	3	7	112	0.00	30.002 
06:30	25.4	25.4	25.4	85	21.5	2	7	112	0.00	30.003 
06:35	25.6	25.6	25.6	85	21.7	2	5	90	0.00	30.003 
06:40	25.6	25.6	25.6	85	21.7	2	5	90	0.00	30.004 
06:45	25.7	25.7	25.7	85	21.8	2	5	112	0.00	30.004 
06:50	25.8	25.8	25.8	85	21.9	2	6	90	0.00	30.003 
06:55	25.8	25.8	25.8	85	21.9	3	6	112	0.00	30.001 
07:00	26.0	26.0	26.0	85	22.1	2	6	112	0.00	29.998 
07:05	26.1	26.1	26.1	85	22.2	3	7	112	0.00	30.001 
07:10	26.1	26.1	26.1	85	22.2	3	7	112	0.00	30.002 
07:15	26.3	26.3	26.3	84	22.1	3	9	112	0.00	30.004 
07:20	26.4	26.4	26.4	85	22.5	2	4	90	0.00	30.006 
07:25	26.6	26.6	26.6	84	22.4	3	6	90	0.00	30.008 
07:30	26.7	26.7	26.7	84	22.5	3	7	112	0.00	30.009 
07:35	26.9	26.9	26.9	84	22.7	3	9	112	0.00	30.010 
07:40	27.0	27.0	27.0	84	22.8	2	5	112	0.00	30.010 
07:45	27.0	27.0	27.0	84	22.8	3	6	112	0.00	30.007 
07:50	27.0	27.0	27.0	84	22.8	3	6	90	0.00	30.007 
07:55	27.2	27.2	27.2	84	23.0	2	5	112	0.00	30.008 
08:00	27.3	27.3	27.3	83	22.8	2	5	112	0.00	30.013 
08:05	27.5	27.5	27.5	83	23.0	2	5	90	0.00	30.016 
08:10	27.6	27.6	27.6	83	23.1	2	7	90	0.00	30.019 
08:15	27.6	27.6	27.6	83	23.1	2	6	112	0.00	30.020 
08:20	27.8	27.8	27.8	82	23.0	1	4	112	0.00	30.021 
08:25	27.8	27.8	27.8	82	23.0	2	6	112	0.00	30.026 
08:30	27.9	27.9	27.9	82	23.1	1	5	112	0.00	30.031 
08:35	28.1	28.1	28.1	82	23.3	2	6	112	0.00	30.032 
08:40	28.1	28.1	28.1	82	23.3	2	4	112	0.00	30.032 
08:45	28.2	28.2	28.2	82	23.4	2	5	112	0.00	30.034 
08:50	28.2	28.2	28.2	82	23.4	1	3	112	0.00	30.035 
08:55	28.4	28.4	28.4	82	23.6	2	5	112	0.00	30.034 
09:00	28.4	28.4	28.4	82	23.6	2	5	90	0.00	30.033 
09:05	28.5	28.5	28.5	82	23.7	1	3	112	0.00	30.034 
09:10	28.5	28.5	28.5	81	23.4	2	4	112	0.00	30.035 
09:15	28.5	28.5	28.5	81	23.4	2	5	112	0.00	30.036 
09:20	28.7	28.7	28.7	82	23.9	1	4	90	0.00	30.035 
09:25	28.8	28.8	28.8	81	23.7	1	3	112	0.00	30.035 
09:30	28.8	28.8	28.8	81	23.7	2	4	112	0.00	30.034 
09:35	28.8	28.8	28.8	81	23.7	2	5	90	0.00	30.034 
09:40	29.1	29.1	29.1	81	24.0	1	4	45	0.00	30.034 
09:45	29.3	29.3	29.3	81	24.2	1	3	112	0.00	30.034 
09:50	29.3	29.3	29.3	81	24.2	2	5	112	0.00	30.034 
09:55	29.4	29.4	29.4	81	24.3	1	4	112	0.00	30.035 
10:00	29.4	29.4	29.4	81	24.3	1	5	112	0.00	30.037 
10:05	29.4	29.4	29.4	81	24.3	2	4	112	0.00	30.040 
10:10	29.5	29.5	29.5	81	24.4	0	1	112	0.00	30.046 
10:15	29.7	29.7	29.7	81	24.6	0	2	112	0.00	30.049 
10:20	29.7	29.7	29.7	81	24.6	0	2	112	0.00	30.050 
10:25	29.7	29.7	29.7	81	24.6	0	3	68	0.00	30.050 
10:30	29.8	29.8	29.8	81	24.7	0	1	68	0.00	30.050 
10:35	30.0	30.0	30.0	81	24.9	1	3	112	0.00	30.050 
10:40	30.0	30.0	30.0	81	24.9	1	3	112	0.00	30.050 
10:45	30.0	30.0	30.0	80	24.6	0	3	68	0.00	30.050 
10:50	30.1	30.1	30.1	80	24.7	2	4	112	0.00	30.049 
10:55	30.1	30.1	30.1	80	24.7	3	6	90	0.00	30.044 
11:00	30.3	30.3	30.3	80	24.9	2	6	112	0.00	30.044 
11:05	30.3	30.3	30.3	80	24.9	3	7	112	0.00	30.044 
11:10	30.4	30.4	30.4	80	25.0	2	6	112	0.00	30.045 
11:15	30.6	30.6	30.6	80	25.2	3	6	112	0.00	30.042 
11:20	30.7	30.7	30.7	80	25.3	2	6	112	0.00	30.040 
11:25	31.0	31.0	31.0	79	25.3	2	6	135	0.00	30.041 
11:30	31.0	31.0	31.0	79	25.3	2	4	112	0.00	30.040 
11:35	31.3	31.3	31.3	79	25.6	1	4	112	0.00	30.036 
11:40	31.3	31.3	31.3	80	25.9	3	5	112	0.00	30.035 
11:45	31.3	31.3	31.3	81	26.2	2	4	112	0.00	30.034 
11:50	31.5	31.5	31.5	82	26.7	1	4	112	0.00	30.032 
11:55	31.6	31.6	31.6	81	26.5	1	4	112	0.00	30.026 
12:00	31.8	31.8	31.8	80	26.3	2	4	112	0.00	30.027 
12:05	31.8	31.8	31.8	80	26.3	2	5	90	0.00	30.028 
12:10	31.8	31.8	31.8	80	26.3	3	7	112	0.00	30.026 
12:15	31.8	31.8	31.8	81	26.6	3	7	112	0.00	30.023 
12:20	31.8	31.8	31.8	82	26.9	3	6	90	0.00	30.027 
12:25	31.8	31.8	31.8	82	26.9	1	5	112	0.00	30.031 
12:30	31.8	31.8	31.8	82	26.9	2	5	112	0.00	30.027 
12:35	31.9	31.9	31.9	81	26.7	2	5	90	0.00	30.026 
12:40	32.1	32.1	32.1	81	26.9	3	6	112	0.00	30.020 
12:45	32.4	32.4	32.4	81	27.2	2	4	112	0.00	30.019 
12:50	32.5	32.5	32.5	81	27.3	2	6	112	0.00	30.017 
12:55	32.5	32.5	32.5	80	27.0	3	7	112	0.00	30.017 
13:00	32.5	32.5	32.5	81	27.3	3	5	112	0.00	30.014 
13:05	32.7	32.7	32.7	81	27.5	3	5	112	0.00	30.008 
13:10	32.8	32.8	32.8	81	27.6	2	7	112	0.00	30.008 
13:15	32.9	32.9	32.9	81	27.7	1	4	112	0.00	30.010 
13:20	33.2	33.2	33.2	81	28.0	3	6	90	0.00	30.011 
13:25	33.2	33.2	33.2	81	28.0	2	5	112	0.00	30.009 
13:30	33.5	33.5	33.5	82	28.6	1	3	112	0.00	30.008 
13:35	33.7	33.7	33.7	81	28.5	2	5	90	0.00	30.005 
13:40	33.7	33.7	33.7	83	29.1	2	4	112	0.00	30.006 
13:45	33.5	33.5	33.5	82	28.6	1	5	112	0.01	30.009 
13:50	33.5	33.5	33.5	82	28.6	2	5	90	0.00	30.011 
13:55	33.7	33.7	33.7	83	29.1	1	3	112	0.00	30.010 
14:00	33.7	33.7	33.7	84	29.4	2	6	112	0.00	30.013 
14:05	33.7	33.7	33.7	85	29.7	1	4	90	0.00	30.014 
14:10	33.7	33.7	33.7	84	29.4	1	4	112	0.00	30.011 
14:15	33.7	33.7	33.7	84	29.4	1	4	112	0.00	30.010 
14:20	33.8	33.8	33.8	84	29.5	1	4	112	0.00	30.011 
14:25	33.8	33.8	33.8	84	29.5	1	3	112	0.01	30.010 
14:30	33.7	33.7	33.7	83	29.1	2	4	112	0.00	30.011 
14:35	33.7	33.7	33.7	84	29.4	1	3	90	0.00	30.012 
14:40	33.7	33.7	33.7	83	29.1	1	6	90	0.00	30.011 
14:45	33.7	33.7	33.7	84	29.4	2	5	90	0.00	30.008 
14:50	33.5	33.5	33.5	84	29.2	2	5	112	0.00	30.005 
14:55	33.5	33.5	33.5	85	29.5	1	2	112	0.00	30.004 
15:00	33.5	33.5	33.5	85	29.5	1	4	112	0.00	30.002 
15:05	33.5	33.5	33.5	86	29.8	2	5	90	0.00	30.003 
15:10	33.5	33.5	33.5	86	29.8	1	2	90	0.00	30.006 
15:15	33.5	33.5	33.5	86	29.8	2	5	90	0.01	30.008 
15:20	33.5	33.5	33.5	86	29.8	1	4	112	0.00	30.011 
15:25	33.4	33.4	33.4	86	29.7	2	4	112	0.00	30.015 
15:30	33.4	33.4	33.4	86	29.7	1	3	112	0.00	30.016 
15:35	33.4	33.4	33.4	86	29.7	2	4	112	0.00	30.015 
15:40	33.5	33.5	33.5	86	29.8	1	3	112	0.00	30.017 
15:45	33.5	33.5	33.5	86	29.8	1	4	112	0.00	30.014 
15:50	33.4	33.4	33.4	86	29.7	1	4	135	0.00	30.015 
15:55	33.4	33.4	33.4	86	29.7	2	4	112	0.00	30.014 
16:00	33.4	33.4	33.4	86	29.7	1	5	112	0.00	30.011 
16:05	33.4	33.4	33.4	87	30.0	1	3	90	0.01	30.014 
16:10	33.4	33.4	33.4	86	29.7	2	5	112	0.00	30.015 
16:15	33.2	33.2	33.2	86	29.5	1	4	90	0.00	30.017 
16:20	33.2	33.2	33.2	86	29.5	2	5	90	0.00	30.017 
16:25	33.2	33.2	33.2	86	29.5	2	5	90	0.00	30.018 
16:30	33.4	33.4	33.4	86	29.7	1	3	90	0.00	30.018 
16:35	33.4	33.4	33.4	86	29.7	1	4	135	0.00	30.019 
16:40	33.4	33.4	33.4	86	29.7	2	4	90	0.00	30.019 
16:45	33.4	33.4	33.4	86	29.7	2	6	90	0.00	30.019 
16:50	33.4	33.4	33.4	86	29.7	2	5	90	0.00	30.019 
16:55	33.4	33.4	33.4	86	29.7	2	4	90	0.00	30.019 
17:00	33.4	33.4	33.4	87	30.0	1	4	90	0.00	30.020 
17:05	33.4	33.4	33.4	87	30.0	1	5	90	0.00	30.021 
17:10	33.4	33.4	33.4	87	30.0	2	5	90	0.00	30.022 
17:15	33.4	33.4	33.4	87	30.0	1	4	90	0.00	30.024 
17:20	33.4	33.4	33.4	87	30.0	1	3	90	0.00	30.026 
17:25	33.4	33.4	33.4	87	30.0	2	5	90	0.00	30.021 
17:30	33.4	33.4	33.4	87	30.0	1	4	90	0.00	30.024 
17:35	33.5	33.5	33.5	88	30.3	2	3	90	0.00	30.023 
17:40	33.5	33.5	33.5	87	30.1	2	6	90	0.00	30.023 
17:45	33.7	33.7	33.7	87	30.3	2	5	112	0.00	30.025 
17:50	33.8	33.8	33.8	87	30.3	2	4	90	0.00	30.027 
17:55	33.8	33.8	33.8	86	30.1	3	6	112	0.00	30.027 
18:00	33.8	33.8	33.8	86	30.1	3	5	90	0.00	30.029 
18:05	33.8	33.8	33.8	86	30.1	2	5	90	0.00	30.029 
18:10	34.0	34.0	34.0	87	30.5	2	5	90	0.00	30.029 
18:15	34.0	34.0	34.0	87	30.5	2	4	90	0.00	30.028 
18:20	34.0	34.0	34.0	87	30.5	3	6	112	0.00	30.025 
18:25	34.0	34.0	34.0	87	30.5	2	5	112	0.00	30.024 
18:30	34.0	34.0	34.0	87	30.5	2	4	112	0.00	30.022 
18:35	34.0	34.0	34.0	88	30.8	2	5	90	0.00	30.023 
18:40	34.0	34.0	34.0	88	30.8	1	3	90	0.00	30.028 
18:45	34.0	34.0	34.0	88	30.8	2	4	90	0.00	30.027 
18:50	34.0	34.0	34.0	88	30.8	2	4	112	0.00	30.029 
18:55	34.0	34.0	34.0	88	30.8	2	6	112	0.00	30.029 
19:00	34.0	34.0	34.0	88	30.8	2	5	112	0.00	30.031 
19:05	34.0	34.0	34.0	88	30.8	1	4	112	0.00	30.031 
19:10	34.0	34.0	34.0	89	31.1	1	5	112	0.00	30.032 
19:15	34.1	34.1	34.1	89	31.2	2	4	90	0.00	30.032 
19:20	34.1	34.1	34.1	89	31.2	1	4	90	0.00	30.032 
19:25	34.1	34.1	34.1	90	31.5	1	3	90	0.00	30.031 
19:30	34.1	34.1	34.1	90	31.5	1	3	90	0.00	30.031 
19:35	34.1	34.1	34.1	91	31.8	2	4	90	0.00	30.030 
19:40	34.1	34.1	34.1	92	32.0	2	5	90	0.00	30.032 
19:45	34.0	34.0	34.0	92	31.9	1	4	90	0.00	30.034 
19:50	34.0	34.0	34.0	93	32.2	1	3	90	0.00	30.040 
19:55	34.0	34.0	34.0	93	32.2	0	2	90	0.00	30.045 
20:00	34.0	34.0	34.0	93	32.2	0	3	90	0.00	30.047 
20:05	34.0	34.0	34.0	94	32.5	0	2	90	0.00	30.046 
20:10	34.0	34.0	34.0	94	32.5	0	1	90	0.00	30.046 
20:15	34.0	34.0	34.0	94	32.5	0	1	90	0.00	30.047 
20:20	34.0	34.0	34.0	94	32.5	1	3	90	0.00	30.046 
20:25	34.1	34.1	34.1	94	32.6	0	2	90	0.00	30.047 
20:30	34.1	34.1	34.1	94	32.6	1	4	90	0.00	30.047 
20:35	34.1	34.1	34.1	94	32.6	1	3	90	0.00	30.046 
20:40	34.3	34.3	34.3	95	33.0	2	5	90	0.00	30.046 
20:45	34.4	34.4	34.4	95	33.1	1	3	90	0.00	30.046 
20:50	34.4	34.4	34.4	95	33.1	1	5	90	0.00	30.042 
20:55	34.4	34.4	34.4	95	33.1	2	5	112	0.00	30.040 
21:00	34.4	34.4	34.4	95	33.1	1	3	90	0.00	30.044 
21:05	34.3	34.3	34.3	95	33.0	0	3	90	0.00	30.045 
21:10	34.3	34.3	34.3	95	33.0	1	3	90	0.00	30.036 
21:15	34.3	34.3	34.3	95	33.0	2	4	90	0.00	30.031 
21:20	34.3	34.3	34.3	95	33.0	1	4	135	0.00	30.033 
21:25	34.3	34.3	34.3	95	33.0	1	3	135	0.00	30.031 
21:30	34.1	34.1	34.1	95	32.8	1	3	112	0.00	30.030 
21:35	34.1	34.1	34.1	95	32.8	1	3	112	0.00	30.031 
21:40	34.1	34.1	34.1	95	32.8	1	2	112	0.00	30.030 
21:45	34.1	34.1	34.1	95	32.8	1	4	112	0.00	30.030 
21:50	34.1	34.1	34.1	95	32.8	1	3	68	0.00	30.030 
21:55	34.1	34.1	34.1	95	32.8	1	6	90	0.00	30.030 
22:00	34.1	34.1	34.1	95	32.8	1	3	135	0.00	30.029 
22:05	34.1	34.1	34.1	95	32.8	0	2	135	0.01	30.028 
22:10	34.3	34.3	34.3	95	33.0	1	2	135	0.00	30.028 
22:15	34.3	34.3	34.3	96	33.3	0	2	45	0.00	30.029 
22:20	34.3	34.3	34.3	96	33.3	0	3	45	0.00	30.028 
22:25	34.3	34.3	34.3	96	33.3	0	2	90	0.00	30.030 
22:30	34.3	34.3	34.3	96	33.3	1	3	90	0.00	30.028 
22:35	34.3	34.3	34.3	96	33.3	1	3	90	0.00	30.030 
22:40	34.3	34.3	34.3	96	33.3	0	2	112	0.01	30.030 
22:45	34.4	34.4	34.4	96	33.4	1	3	112	0.00	30.030 
22:50	34.4	34.4	34.4	96	33.4	0	3	90	0.00	30.033 
22:55	34.6	34.6	34.6	96	33.6	1	2	112	0.00	30.033 
23:00	34.7	34.7	34.7	96	33.7	1	2	112	0.00	30.032 
23:05	34.7	34.7	34.7	96	33.7	1	2	112	0.00	30.032 
23:10	34.9	34.9	34.9	96	33.9	1	3	112	0.00	30.036 
23:15	34.9	34.9	34.9	96	33.9	0	1	112	0.00	30.040 
23:20	35.0	35.0	35.0	96	34.0	1	3	112	0.00	30.039 
23:25	35.0	35.0	35.0	96	34.0	0	2	112	0.00	30.041 
23:30	35.0	35.0	35.0	96	34.0	0	1	112	0.00	30.039 
23:35	35.0	35.0	35.0	96	34.0	0	2	112	0.00	30.040 
23:40	35.0	35.0	35.0	96	34.0	1	2	112	0.00	30.040 
23:45	35.2	35.2	35.2	96	34.2	1	4	112	0.00	30.038 
23:50	35.2	35.2	35.2	96	34.2	0	2	112	0.01	30.037 
23:55	35.2	35.2	35.2	96	34.2	0	2	112	0.00	30.041 

CoCoRaHS
IN-AL-39
A2 Web Hosting
Creative Commons License
GoDaddy
Look for:

loaded 2017-12-12 01:44:21 • last modified 2010-11-18 10:43:29
Privacy PolicyDisclaimer
• wx.awcolley.com is powered by PmWiki v.2002016 •
• all content (unless otherwise noted) © 2017 A W Colley